Kemptville, Canada
Current Conditions -  °F | °C
As of 5:00 AM on Monday 22 Dec 2014 (Local Time) from CYOW Reporting Station
Haze Haze  
Wind Chill:   Ceiling: 300
Heat Index: 16°   Visibility: 1.5mi
Dew Point: 14°   Wind: 8mph
Humidity: 93%   Direction: 110°ESE
Pressure: 30.38"   Gusts: NA
Location:  45.02°N, 75.65°W
Report Text: CYOW 221000Z 11007KT 1 1/2SM BR OVC003 M09/M10 A3038 RMK FG2ST6 SLP297
Loading
Personal Weather Stations






























Interactive Weather Map New forecast layout! Learn more

10-Day Weather Forecast

Advertisements
Track Severe Weather on mobile